Terminal Aerodrome Forecast
Issued by NWS

Home | Current Version | Previous Version | Text Only | Print | Product List | Glossary On
Versions: 1 2 3 4 5 6 7 8 9 10 11 12 13 14 15 16 17 18 19 20
000
FTUS44 KSJT 180500
TAFJCT
TAF
KJCT 180539Z 1806/1906 VRB04KT 1SM BR OVC004
     FM180700 VRB03KT 1/2SM FG OVC002
     FM181300 VRB03KT 2SM BR BKN005
     FM181600 VRB03KT P6SM BKN250
     FM190100 06006KT P6SM SCT100=

USA.gov is the U.S. government's official web portal to all federal, state and local government web resources and services.